createdAt,value
2019-05-25T00:00:44.815Z,16.20
2019-05-25T00:03:17.916Z,16.10
2019-05-25T00:05:51.420Z,16.10
2019-05-25T00:08:24.577Z,16.20
2019-05-25T00:10:57.353Z,16.20
2019-05-25T00:13:38.506Z,16.20
2019-05-25T00:16:12.237Z,16.20
2019-05-25T00:18:46.481Z,16.10
2019-05-25T00:21:19.608Z,16.00
2019-05-25T00:23:52.220Z,15.90
2019-05-25T00:26:27.246Z,15.90
2019-05-25T00:29:01.286Z,15.80
2019-05-25T00:31:33.704Z,15.90
2019-05-25T00:34:10.144Z,15.90
2019-05-25T00:36:45.051Z,15.90
2019-05-25T00:39:19.818Z,15.90
2019-05-25T00:41:51.931Z,15.80
2019-05-25T00:44:27.341Z,15.90
2019-05-25T00:47:01.685Z,15.80
2019-05-25T00:49:35.232Z,15.70
2019-05-25T00:52:11.879Z,15.70
2019-05-25T00:54:44.927Z,15.70
2019-05-25T00:57:17.631Z,15.70
2019-05-25T01:00:03.296Z,15.70
2019-05-25T01:02:38.794Z,15.80
2019-05-25T01:05:11.300Z,15.80
2019-05-25T01:07:45.361Z,15.80
2019-05-25T01:10:19.113Z,15.80
2019-05-25T01:12:52.809Z,15.80
2019-05-25T01:15:25.306Z,15.80
2019-05-25T01:17:58.487Z,15.90
2019-05-25T01:20:32.200Z,15.90
2019-05-25T01:23:04.518Z,15.90
2019-05-25T01:25:38.978Z,15.90
2019-05-25T01:28:11.822Z,15.90
2019-05-25T01:30:45.843Z,15.80
2019-05-25T01:33:21.721Z,15.90
2019-05-25T01:35:54.499Z,15.90
2019-05-25T01:38:27.255Z,15.90
2019-05-25T01:40:58.828Z,16.00
2019-05-25T01:43:31.861Z,16.00
2019-05-25T01:46:05.257Z,16.10
2019-05-25T01:48:37.784Z,16.10
2019-05-25T01:51:12.620Z,16.10
2019-05-25T01:53:46.030Z,16.10
2019-05-25T01:56:20.942Z,16.20
2019-05-25T01:58:52.988Z,16.10
2019-05-25T02:01:26.598Z,16.20
2019-05-25T02:04:00.025Z,16.10
2019-05-25T02:06:32.778Z,16.10
2019-05-25T02:09:15.610Z,16.10
2019-05-25T02:11:48.345Z,16.10
2019-05-25T02:14:20.252Z,16.10
2019-05-25T02:16:52.216Z,16.20
2019-05-25T02:19:24.775Z,16.10
2019-05-25T02:21:57.941Z,16.10
2019-05-25T02:24:31.614Z,16.10
2019-05-25T02:27:04.008Z,16.10
2019-05-25T02:29:35.865Z,16.10
2019-05-25T02:32:08.177Z,16.10
2019-05-25T02:34:41.621Z,16.10
2019-05-25T02:37:14.415Z,16.20
2019-05-25T02:39:46.801Z,16.30
2019-05-25T02:42:19.321Z,16.30
2019-05-25T02:44:53.316Z,16.40
2019-05-25T02:47:25.534Z,16.40
2019-05-25T02:49:57.791Z,16.40
2019-05-25T02:52:29.265Z,16.40
2019-05-25T02:55:01.971Z,16.40
2019-05-25T02:57:34.010Z,16.50
2019-05-25T03:00:07.479Z,16.50
2019-05-25T03:02:41.681Z,16.50
2019-05-25T03:05:16.010Z,16.60
2019-05-25T03:07:49.981Z,16.60
2019-05-25T03:10:23.455Z,16.70
2019-05-25T03:12:56.178Z,16.70
2019-05-25T03:15:28.916Z,16.70
2019-05-25T03:18:00.794Z,16.70
2019-05-25T03:20:32.760Z,16.70
2019-05-25T03:23:04.698Z,16.80
2019-05-25T03:25:49.279Z,16.80
2019-05-25T03:28:10.992Z,16.80
2019-05-25T03:30:42.753Z,16.80
2019-05-25T03:33:15.710Z,16.90
2019-05-25T03:35:47.647Z,16.90
2019-05-25T03:38:19.535Z,16.90
2019-05-25T03:40:52.007Z,16.90
2019-05-25T03:43:26.143Z,17.00
2019-05-25T03:45:57.715Z,17.00
2019-05-25T03:48:29.685Z,17.00
2019-05-25T03:51:01.987Z,17.00
2019-05-25T03:53:34.977Z,17.00
2019-05-25T03:56:06.892Z,17.10
2019-05-25T03:58:39.737Z,17.10
2019-05-25T04:01:12.444Z,17.20
2019-05-25T04:03:45.094Z,17.30
2019-05-25T04:06:17.809Z,17.20
2019-05-25T04:08:50.361Z,17.40
2019-05-25T04:11:23.009Z,17.30
2019-05-25T04:13:55.611Z,17.40
2019-05-25T04:16:27.491Z,17.50
2019-05-25T04:18:59.425Z,17.40
2019-05-25T04:21:32.682Z,17.60
2019-05-25T04:24:04.773Z,17.80
2019-05-25T04:26:36.334Z,17.80
2019-05-25T04:29:09.800Z,17.90
2019-05-25T04:31:42.740Z,17.80
2019-05-25T04:34:15.640Z,17.80
2019-05-25T04:36:49.155Z,17.80
2019-05-25T04:39:21.464Z,17.70
2019-05-25T04:41:52.904Z,17.70
2019-05-25T04:44:25.428Z,17.80
2019-05-25T04:46:59.010Z,17.90
2019-05-25T04:49:30.670Z,17.90
2019-05-25T04:52:03.493Z,17.90
2019-05-25T04:54:35.921Z,17.90
2019-05-25T04:57:07.925Z,17.90
2019-05-25T04:59:39.868Z,17.80
2019-05-25T05:02:12.314Z,18.30
2019-05-25T05:04:44.901Z,18.50
2019-05-25T05:07:18.327Z,18.70
2019-05-25T05:10:02.297Z,18.80
2019-05-25T05:12:24.966Z,18.90
2019-05-25T05:14:58.512Z,18.90
2019-05-25T05:17:32.332Z,19.00
2019-05-25T05:20:04.896Z,19.10
2019-05-25T05:22:38.158Z,19.40
2019-05-25T05:25:12.027Z,19.90
2019-05-25T05:27:45.161Z,20.40
2019-05-25T05:30:16.713Z,20.70
2019-05-25T05:32:48.677Z,21.20
2019-05-25T05:35:21.445Z,21.20
2019-05-25T05:37:54.131Z,21.80
2019-05-25T05:40:26.969Z,21.00
2019-05-25T05:43:01.151Z,21.10
2019-05-25T05:45:44.894Z,20.70
2019-05-25T05:48:18.555Z,20.60
2019-05-25T05:50:53.573Z,20.50
2019-05-25T05:53:26.929Z,20.30
2019-05-25T05:56:02.604Z,20.30
2019-05-25T05:58:35.456Z,20.60
2019-05-25T06:01:08.339Z,21.20
2019-05-25T06:03:41.686Z,21.80
2019-05-25T06:06:14.751Z,22.30
2019-05-25T06:08:48.626Z,22.60
2019-05-25T06:11:21.392Z,22.40
2019-05-25T06:13:55.151Z,22.60
2019-05-25T06:16:29.083Z,22.00
2019-05-25T06:19:01.552Z,21.90
2019-05-25T06:21:33.714Z,21.90
2019-05-25T06:24:06.141Z,22.30
2019-05-25T06:26:38.387Z,22.60
2019-05-25T06:29:13.697Z,22.80
2019-05-25T06:31:48.093Z,22.40
2019-05-25T06:34:20.828Z,22.10
2019-05-25T06:36:54.863Z,22.10
2019-05-25T06:39:27.619Z,21.90
2019-05-25T06:42:00.282Z,22.60
2019-05-25T06:44:34.811Z,22.50
2019-05-25T06:47:07.351Z,22.60
2019-05-25T06:49:42.734Z,23.00
2019-05-25T06:52:15.712Z,23.10
2019-05-25T06:54:49.328Z,23.50
2019-05-25T06:57:23.241Z,23.40
2019-05-25T06:59:55.532Z,23.40
2019-05-25T07:02:29.336Z,23.20
2019-05-25T07:05:01.293Z,23.20
2019-05-25T07:07:35.741Z,23.50
2019-05-25T07:10:09.280Z,23.50
2019-05-25T07:12:42.771Z,23.10
2019-05-25T07:15:15.242Z,22.80
2019-05-25T07:17:48.337Z,23.00
2019-05-25T07:20:21.650Z,22.80
2019-05-25T07:22:55.655Z,22.90
2019-05-25T07:25:29.584Z,22.90
2019-05-25T07:28:04.152Z,23.00
2019-05-25T07:30:38.546Z,22.90
2019-05-25T07:33:10.972Z,22.40
2019-05-25T07:35:43.399Z,22.20
2019-05-25T07:38:18.146Z,22.00
2019-05-25T07:40:51.351Z,22.00
2019-05-25T07:43:25.028Z,21.70
2019-05-25T07:45:57.058Z,21.90
2019-05-25T07:48:30.238Z,22.40
2019-05-25T07:51:04.937Z,23.00
2019-05-25T07:53:38.884Z,23.20
2019-05-25T07:56:19.735Z,23.60
2019-05-25T07:58:53.932Z,24.00
2019-05-25T08:01:37.149Z,23.80
2019-05-25T08:04:10.255Z,23.30
2019-05-25T08:06:43.340Z,23.30
2019-05-25T08:09:17.659Z,23.00
2019-05-25T08:11:53.003Z,22.50
2019-05-25T08:14:25.358Z,22.40
2019-05-25T08:16:57.986Z,22.80
2019-05-25T08:19:31.069Z,23.30
2019-05-25T08:22:05.724Z,23.70
2019-05-25T08:24:37.285Z,23.90
2019-05-25T08:27:10.377Z,24.30
2019-05-25T08:29:44.062Z,23.80
2019-05-25T08:32:17.848Z,23.40
2019-05-25T08:34:51.920Z,22.90
2019-05-25T08:37:24.375Z,22.80
2019-05-25T08:39:57.611Z,22.90
2019-05-25T08:42:29.554Z,23.20
2019-05-25T08:45:02.469Z,23.20
2019-05-25T08:47:57.284Z,22.90
2019-05-25T08:50:38.234Z,23.10
2019-05-25T08:53:06.450Z,23.60
2019-05-25T08:55:39.508Z,23.50
2019-05-25T08:58:13.495Z,23.70
2019-05-25T09:00:50.948Z,24.20
2019-05-25T09:03:27.114Z,24.50
2019-05-25T09:06:00.953Z,25.40
2019-05-25T09:08:33.437Z,25.30
2019-05-25T09:11:07.602Z,24.90
2019-05-25T09:13:41.581Z,24.70
2019-05-25T09:16:14.784Z,24.80
2019-05-25T09:18:56.749Z,25.10
2019-05-25T09:21:39.820Z,25.80
2019-05-25T09:24:18.960Z,25.70
2019-05-25T09:27:01.108Z,25.70
2019-05-25T09:29:52.970Z,25.60
2019-05-25T09:35:22.774Z,25.00
2019-05-25T09:40:51.077Z,24.60
2019-05-25T09:46:38.656Z,25.80
2019-05-25T09:49:24.574Z,26.00
2019-05-25T09:52:10.170Z,26.10
2019-05-25T09:54:47.861Z,26.60
2019-05-25T09:57:29.137Z,26.50
2019-05-25T10:00:19.594Z,26.80
2019-05-25T10:03:01.869Z,26.90
2019-05-25T10:05:44.170Z,26.80
2019-05-25T10:08:38.311Z,27.50
2019-05-25T10:11:14.212Z,27.60
2019-05-25T10:13:56.538Z,27.20
2019-05-25T10:16:35.744Z,26.90
2019-05-25T10:19:26.229Z,26.70
2019-05-25T10:22:04.396Z,27.70
2019-05-25T10:24:45.921Z,26.50
2019-05-25T10:27:24.317Z,25.60
2019-05-25T10:30:01.799Z,24.80
2019-05-25T10:32:40.155Z,25.60
2019-05-25T10:35:19.531Z,25.70
2019-05-25T10:37:54.274Z,26.40
2019-05-25T10:40:29.068Z,25.50
2019-05-25T10:43:03.389Z,25.00
2019-05-25T10:45:37.216Z,25.10
2019-05-25T10:51:22.897Z,25.40
2019-05-25T10:53:57.718Z,25.10
2019-05-25T10:56:31.814Z,24.80
2019-05-25T10:59:05.042Z,24.60
2019-05-25T11:01:38.980Z,24.80
2019-05-25T11:04:11.677Z,25.10
2019-05-25T11:06:44.901Z,25.20
2019-05-25T11:09:19.325Z,24.80
2019-05-25T11:11:51.908Z,24.50
2019-05-25T11:14:26.277Z,24.50
2019-05-25T11:16:59.058Z,24.40
2019-05-25T11:19:35.323Z,24.40
2019-05-25T11:22:08.952Z,24.50
2019-05-25T11:24:41.854Z,24.40
2019-05-25T11:27:34.204Z,24.40
2019-05-25T11:30:10.229Z,24.30
2019-05-25T11:32:47.011Z,24.30
2019-05-25T11:35:22.734Z,24.40
2019-05-25T11:37:56.475Z,24.50
2019-05-25T11:40:29.231Z,24.60
2019-05-25T11:43:03.540Z,24.90
2019-05-25T11:45:36.262Z,25.20
2019-05-25T11:48:08.693Z,25.30
2019-05-25T11:50:42.817Z,25.50
2019-05-25T11:53:16.163Z,25.30
2019-05-25T11:55:50.126Z,25.10
2019-05-25T11:58:24.016Z,24.60
2019-05-25T12:00:57.769Z,24.40
2019-05-25T12:03:30.529Z,24.50
2019-05-25T12:06:02.879Z,24.40
2019-05-25T12:08:37.164Z,24.30
2019-05-25T12:11:09.596Z,24.30
2019-05-25T12:13:45.158Z,24.20
2019-05-25T12:16:29.683Z,24.10
2019-05-25T12:19:03.367Z,23.90
2019-05-25T12:22:06.352Z,23.70
2019-05-25T12:24:38.315Z,23.70
2019-05-25T12:27:11.743Z,23.80
2019-05-25T12:29:45.271Z,23.70
2019-05-25T12:32:18.939Z,23.70
2019-05-25T12:34:52.105Z,23.70
2019-05-25T12:37:25.328Z,23.60
2019-05-25T12:39:57.821Z,23.70
2019-05-25T12:42:30.526Z,23.80
2019-05-25T12:45:03.947Z,23.80
2019-05-25T12:47:36.950Z,23.80
2019-05-25T12:50:11.157Z,23.80
2019-05-25T12:52:45.438Z,23.70
2019-05-25T12:55:18.191Z,23.60
2019-05-25T12:57:53.924Z,23.50
2019-05-25T13:00:26.581Z,23.50
2019-05-25T13:03:00.661Z,23.30
2019-05-25T13:05:34.498Z,23.20
2019-05-25T13:08:06.499Z,23.30
2019-05-25T13:10:41.064Z,23.10
2019-05-25T13:13:15.214Z,23.00
2019-05-25T13:15:57.620Z,22.80
2019-05-25T13:18:31.022Z,22.60
2019-05-25T13:21:04.259Z,22.50
2019-05-25T13:23:39.367Z,22.40
2019-05-25T13:26:13.787Z,21.90
2019-05-25T13:28:47.093Z,21.60
2019-05-25T13:31:20.286Z,21.30
2019-05-25T13:33:54.429Z,21.30
2019-05-25T13:36:28.076Z,21.10
2019-05-25T13:39:01.318Z,20.90
2019-05-25T13:41:35.109Z,20.80
2019-05-25T13:44:09.240Z,20.60
2019-05-25T13:46:43.112Z,20.50
2019-05-25T13:49:16.480Z,20.40
2019-05-25T13:51:51.045Z,20.40
2019-05-25T13:54:24.213Z,20.40
2019-05-25T13:56:59.063Z,20.30
2019-05-25T13:59:35.204Z,20.40
2019-05-25T14:02:08.401Z,20.40
2019-05-25T14:04:40.936Z,20.50
2019-05-25T14:07:14.268Z,20.70
2019-05-25T14:09:52.418Z,20.70
2019-05-25T14:12:30.411Z,20.70
2019-05-25T14:15:04.459Z,20.80
2019-05-25T14:17:40.511Z,20.70
2019-05-25T14:20:16.065Z,20.80
2019-05-25T14:22:48.817Z,20.80
2019-05-25T14:25:22.223Z,20.90
2019-05-25T14:27:55.817Z,21.00
2019-05-25T14:30:29.801Z,21.10
2019-05-25T14:33:02.345Z,21.00
2019-05-25T14:35:35.845Z,21.10
2019-05-25T14:38:10.686Z,21.10
2019-05-25T14:40:44.903Z,21.00
2019-05-25T14:43:19.950Z,21.00
2019-05-25T14:45:54.374Z,21.00
2019-05-25T14:48:30.964Z,21.10
2019-05-25T14:51:03.929Z,21.10
2019-05-25T14:53:36.832Z,21.10
2019-05-25T14:56:12.898Z,21.10
2019-05-25T14:58:46.831Z,21.40
2019-05-25T15:01:23.048Z,21.80
2019-05-25T15:03:57.189Z,22.10
2019-05-25T15:06:30.485Z,22.30
2019-05-25T15:09:04.335Z,22.60
2019-05-25T15:11:39.801Z,23.10
2019-05-25T15:14:13.777Z,22.80
2019-05-25T15:16:46.728Z,22.50
2019-05-25T15:19:23.203Z,22.40
2019-05-25T15:21:56.530Z,22.30
2019-05-25T15:24:28.464Z,22.20
2019-05-25T15:27:02.000Z,22.20
2019-05-25T15:29:35.360Z,22.10
2019-05-25T15:32:19.481Z,22.10
2019-05-25T15:34:46.497Z,22.10
2019-05-25T15:37:18.993Z,22.10
2019-05-25T15:39:53.576Z,22.10
2019-05-25T15:42:26.282Z,22.00
2019-05-25T15:45:01.275Z,21.90
2019-05-25T15:47:33.843Z,21.80
2019-05-25T15:50:08.514Z,21.80
2019-05-25T15:52:41.453Z,21.80
2019-05-25T15:55:16.034Z,21.70
2019-05-25T15:57:49.286Z,21.80
2019-05-25T16:00:24.110Z,22.40
2019-05-25T16:02:58.478Z,22.40
2019-05-25T16:05:32.027Z,22.30
2019-05-25T16:08:04.732Z,22.00
2019-05-25T16:10:39.297Z,21.80
2019-05-25T16:13:12.300Z,22.10
2019-05-25T16:15:55.755Z,23.30
2019-05-25T16:18:29.593Z,23.90
2019-05-25T16:21:04.162Z,23.70
2019-05-25T16:23:38.404Z,22.80
2019-05-25T16:26:12.373Z,22.40
2019-05-25T16:28:45.766Z,22.10
2019-05-25T16:33:57.816Z,21.70
2019-05-25T16:36:35.043Z,21.60
2019-05-25T16:39:11.659Z,21.40
2019-05-25T16:41:46.122Z,21.30
2019-05-25T16:44:26.824Z,21.20
2019-05-25T16:47:05.112Z,21.10
2019-05-25T16:49:43.982Z,21.00
2019-05-25T16:52:19.489Z,21.10
2019-05-25T16:54:55.240Z,20.90
2019-05-25T16:57:30.372Z,20.90
2019-05-25T17:00:02.845Z,20.90
2019-05-25T17:02:36.996Z,20.80
2019-05-25T17:05:12.368Z,20.70
2019-05-25T17:07:46.099Z,20.50
2019-05-25T17:10:18.002Z,20.50
2019-05-25T17:13:01.919Z,20.60
2019-05-25T17:15:40.646Z,20.50
2019-05-25T17:18:16.789Z,20.40
2019-05-25T17:23:35.469Z,20.00
2019-05-25T17:26:10.095Z,19.90
2019-05-25T17:28:46.547Z,19.80
2019-05-25T17:31:25.106Z,19.70
2019-05-25T17:34:02.076Z,19.60
2019-05-25T17:36:42.110Z,19.50
2019-05-25T17:39:20.421Z,19.40
2019-05-25T17:41:59.458Z,19.30
2019-05-25T17:44:39.817Z,19.30
2019-05-25T17:47:17.260Z,19.10
2019-05-25T17:49:55.728Z,19.10
2019-05-25T17:52:31.930Z,18.90
2019-05-25T17:55:17.657Z,18.90
2019-05-25T17:57:56.679Z,18.80
2019-05-25T18:00:48.237Z,18.90
2019-05-25T18:03:30.742Z,18.90
2019-05-25T18:06:07.219Z,18.70
2019-05-25T18:08:46.321Z,18.70
2019-05-25T18:11:26.692Z,18.70
2019-05-25T18:14:08.939Z,18.70
2019-05-25T18:16:52.596Z,18.70
2019-05-25T18:19:30.404Z,18.90
2019-05-25T18:22:16.878Z,18.80
2019-05-25T18:25:02.666Z,18.80
2019-05-25T18:27:43.865Z,18.80
2019-05-25T18:30:24.448Z,18.70
2019-05-25T18:33:03.464Z,18.80
2019-05-25T18:35:42.642Z,18.70
2019-05-25T18:38:22.990Z,18.60
2019-05-25T18:41:01.975Z,18.50
2019-05-25T18:43:42.373Z,18.40
2019-05-25T18:46:27.313Z,18.30
2019-05-25T18:49:12.317Z,18.20
2019-05-25T18:51:52.102Z,18.10
2019-05-25T18:54:41.834Z,18.00
2019-05-25T18:57:22.308Z,18.00
2019-05-25T19:00:09.288Z,18.00
2019-05-25T19:02:54.443Z,17.90
2019-05-25T19:05:32.465Z,18.00
2019-05-25T19:08:06.929Z,18.00
2019-05-25T19:10:41.949Z,18.20
2019-05-25T19:13:15.613Z,18.10
2019-05-25T19:15:49.731Z,18.00
2019-05-25T19:18:22.171Z,17.80
2019-05-25T19:20:55.573Z,17.70
2019-05-25T19:23:46.810Z,17.70
2019-05-25T19:26:21.067Z,17.70
2019-05-25T19:28:53.878Z,17.60
2019-05-25T19:31:27.831Z,17.50
2019-05-25T19:34:00.608Z,17.50
2019-05-25T19:36:34.106Z,17.50
2019-05-25T19:39:09.542Z,17.40
2019-05-25T19:41:43.107Z,17.30
2019-05-25T19:44:16.408Z,17.30
2019-05-25T19:46:50.299Z,17.30
2019-05-25T19:49:23.601Z,17.20
2019-05-25T19:51:57.693Z,17.30
2019-05-25T19:54:32.543Z,17.20
2019-05-25T19:57:06.406Z,17.00
2019-05-25T19:59:40.222Z,16.90
2019-05-25T20:02:21.702Z,16.90
2019-05-25T20:04:55.272Z,16.80
2019-05-25T20:07:29.048Z,16.80
2019-05-25T20:10:01.521Z,16.70
2019-05-25T20:12:35.058Z,16.60
2019-05-25T20:15:07.907Z,16.60
2019-05-25T20:17:40.751Z,16.70
2019-05-25T20:20:14.207Z,16.90
2019-05-25T20:22:46.991Z,16.90
2019-05-25T20:25:21.489Z,17.00
2019-05-25T20:27:53.956Z,17.00
2019-05-25T20:30:26.079Z,17.00
2019-05-25T20:33:00.423Z,17.00
2019-05-25T20:35:33.949Z,17.00
2019-05-25T20:38:06.940Z,16.90
2019-05-25T20:40:40.888Z,16.90
2019-05-25T20:43:14.858Z,16.80
2019-05-25T20:45:48.803Z,16.70
2019-05-25T20:48:22.075Z,16.70
2019-05-25T20:50:55.594Z,16.60
2019-05-25T20:53:28.192Z,16.50
2019-05-25T20:56:00.580Z,16.50
2019-05-25T20:58:33.429Z,16.40
2019-05-25T21:01:08.640Z,16.40
2019-05-25T21:03:41.822Z,16.30
2019-05-25T21:06:15.588Z,16.30
2019-05-25T21:08:48.016Z,16.20
2019-05-25T21:11:20.596Z,16.20
2019-05-25T21:13:54.429Z,16.10
2019-05-25T21:16:27.936Z,16.00
2019-05-25T21:19:02.977Z,16.10
2019-05-25T21:21:35.368Z,16.10
2019-05-25T21:24:08.337Z,16.10
2019-05-25T21:26:41.462Z,16.00
2019-05-25T21:29:15.537Z,15.90
2019-05-25T21:31:48.238Z,15.90
2019-05-25T21:34:20.968Z,15.90
2019-05-25T21:36:55.002Z,15.80
2019-05-25T21:39:27.829Z,15.80
2019-05-25T21:42:01.857Z,15.70
2019-05-25T21:44:33.889Z,15.70
2019-05-25T21:47:07.249Z,15.80
2019-05-25T21:49:41.100Z,15.90
2019-05-25T21:52:13.853Z,16.00
2019-05-25T21:54:47.212Z,16.00
2019-05-25T21:57:19.295Z,16.10
2019-05-25T21:59:57.124Z,16.20
2019-05-25T22:02:31.985Z,16.10
2019-05-25T22:05:04.722Z,16.10
2019-05-25T22:07:37.295Z,16.20
2019-05-25T22:10:12.635Z,16.20
2019-05-25T22:12:45.714Z,16.20
2019-05-25T22:15:17.742Z,16.10
2019-05-25T22:17:50.370Z,16.10
2019-05-25T22:20:24.062Z,16.10
2019-05-25T22:22:57.482Z,16.00
2019-05-25T22:25:30.862Z,16.00
2019-05-25T22:28:06.973Z,15.90
2019-05-25T22:30:39.929Z,15.80
2019-05-25T22:33:12.321Z,15.80
2019-05-25T22:35:44.881Z,15.70
2019-05-25T22:38:17.921Z,15.60
2019-05-25T22:40:52.346Z,15.50
2019-05-25T22:43:26.757Z,15.50
2019-05-25T22:45:59.230Z,15.40
2019-05-25T22:48:33.028Z,15.40
2019-05-25T22:51:06.302Z,15.40
2019-05-25T22:53:37.919Z,15.30
2019-05-25T22:56:10.458Z,15.30
2019-05-25T22:58:43.268Z,15.30
2019-05-25T23:01:17.836Z,15.30
2019-05-25T23:03:50.638Z,15.30
2019-05-25T23:06:22.912Z,15.30
2019-05-25T23:08:57.109Z,15.40
2019-05-25T23:11:30.728Z,15.40
2019-05-25T23:14:03.244Z,15.40
2019-05-25T23:16:35.583Z,15.30
2019-05-25T23:19:08.376Z,15.30
2019-05-25T23:21:42.134Z,15.20
2019-05-25T23:24:14.867Z,15.10
2019-05-25T23:26:48.371Z,15.10
2019-05-25T23:29:20.836Z,15.20
2019-05-25T23:31:53.077Z,15.20
2019-05-25T23:34:25.704Z,15.30
2019-05-25T23:37:13.563Z,15.30
2019-05-25T23:39:33.562Z,15.20
2019-05-25T23:42:06.332Z,15.10
2019-05-25T23:44:40.055Z,15.00
2019-05-25T23:47:13.033Z,15.00
2019-05-25T23:49:46.116Z,14.90
2019-05-25T23:52:18.575Z,14.80
2019-05-25T23:54:51.826Z,14.70
2019-05-25T23:57:25.491Z,14.80
2019-05-25T23:59:58.293Z,14.70
